Time;durP1;ratioP1;P1;durP2;ratioP2;P2;SDS_P1;SDS_P2;PMS_P1;PMS_P2;Temp;Humidity;BMP_temperature;BMP_pressure;BME280_temperature;BME280_humidity;BME280_pressure;Samples;Min_cycle;Max_cycle;Signal;HPM_P1;HPM_P2
2022/02/16 00:00:04;;;;;;;;;;;2.70;99.90;;;;;;5010277;28;19923;-85
2022/02/16 00:02:38;;;;;;;;;;;2.70;99.90;;;;;;5017029;28;19914;-86
2022/02/16 00:05:08;;;;;;;;;;;2.70;99.90;;;;;;4993536;28;19960;-85
2022/02/16 00:07:34;;;;;;;;;;;2.70;99.90;;;;;;5044598;28;19913;-87
2022/02/16 00:09:59;;;;;;;;;;;2.70;99.90;;;;;;5029793;28;19913;-86
2022/02/16 00:12:25;;;;;;;;;;;2.70;99.90;;;;;;5013680;28;20000;-86
2022/02/16 00:14:52;;;;;;;;;;;2.80;99.90;;;;;;4991655;28;19918;-87
2022/02/16 00:17:18;;;;;;;;;;;2.80;99.90;;;;;;5046103;28;20445;-86
2022/02/16 00:19:44;;;;;;;;;;;2.80;99.90;;;;;;5042520;28;19956;-86
2022/02/16 00:22:10;;;;;;;;;;;2.80;99.90;;;;;;5035838;28;19924;-86
2022/02/16 00:24:35;;;;;;;;;;;2.80;99.90;;;;;;5022927;28;19918;-86
2022/02/16 00:27:01;;;;;;;;;;;2.90;99.90;;;;;;4987154;28;20003;-86
2022/02/16 00:29:28;;;;;;;;;;;2.90;99.90;;;;;;5024379;28;20519;-86
2022/02/16 00:31:53;;;;;;;;;;;2.90;99.90;;;;;;5007383;28;19918;-86
2022/02/16 00:34:21;;;;;;;;;;;2.90;99.90;;;;;;4991699;28;19921;-87
2022/02/16 00:36:47;;;;;;;;;;;2.90;99.90;;;;;;5012284;28;19956;-86
2022/02/16 00:39:12;;;;;;;;;;;2.90;99.90;;;;;;5016817;28;20362;-87
2022/02/16 00:41:39;;;;;;;;;;;2.90;99.90;;;;;;5012933;28;19931;-87
2022/02/16 00:44:05;;;;;;;;;;;2.90;99.90;;;;;;5027483;28;19913;-88
2022/02/16 00:46:31;;;;;;;;;;;3.00;99.90;;;;;;5010309;28;19975;-86
2022/02/16 00:48:56;;;;;;;;;;;3.00;99.90;;;;;;4992733;28;19920;-88
2022/02/16 00:51:22;;;;;;;;;;;3.00;99.90;;;;;;4993778;28;19980;-87
2022/02/16 00:53:48;;;;;;;;;;;3.00;99.90;;;;;;5011241;28;20346;-88
2022/02/16 00:56:14;;;;;;;;;;;3.00;99.90;;;;;;5023718;28;19948;-88
2022/02/16 00:58:40;;;;;;;;;;;3.00;99.90;;;;;;4993322;28;19948;-88
2022/02/16 01:01:06;;;;;;;;;;;3.00;99.90;;;;;;4993986;28;20388;-88
2022/02/16 01:03:31;;;;;;;;;;;3.00;99.90;;;;;;4992151;28;19978;-89
2022/02/16 01:05:59;;;;;;;;;;;3.00;99.90;;;;;;5021965;28;20391;-88
2022/02/16 01:08:25;;;;;;;;;;;3.10;99.90;;;;;;5015297;28;19957;-88
2022/02/16 01:10:51;;;;;;;;;;;3.20;99.90;;;;;;5015870;28;20012;-87
2022/02/16 01:13:19;;;;;;;;;;;3.20;99.90;;;;;;5015102;28;19921;-87
2022/02/16 01:15:44;;;;;;;;;;;3.20;99.90;;;;;;4998065;28;19948;-88
2022/02/16 01:18:10;;;;;;;;;;;3.30;99.90;;;;;;5031928;28;20047;-88
2022/02/16 01:20:47;;;;;;;;;;;3.30;99.90;;;;;;5013462;28;19923;-88
2022/02/16 01:23:13;;;;;;;;;;;3.30;99.90;;;;;;5007578;28;19917;-88
2022/02/16 01:25:41;;;;;;;;;;;3.30;99.90;;;;;;4999216;28;19935;-88
2022/02/16 01:28:15;;;;;;;;;;;3.30;99.90;;;;;;4996713;28;19937;-89
2022/02/16 01:30:41;;;;;;;;;;;3.30;99.90;;;;;;5027930;28;20398;-88
2022/02/16 01:33:18;;;;;;;;;;;3.40;99.90;;;;;;5043878;28;19999;-88
2022/02/16 01:35:50;;;;;;;;;;;3.40;99.90;;;;;;4998854;28;19917;-88
2022/02/16 01:38:15;;;;;;;;;;;3.40;99.90;;;;;;5018393;28;20426;-88
2022/02/16 01:40:49;;;;;;;;;;;3.40;99.90;;;;;;5031569;28;20361;-88
2022/02/16 01:43:16;;;;;;;;;;;3.50;99.90;;;;;;4991459;28;19960;-88
2022/02/16 01:45:44;;;;;;;;;;;3.50;99.90;;;;;;4995190;28;19917;-88
2022/02/16 01:48:13;;;;;;;;;;;3.50;99.90;;;;;;4983760;28;19925;-88
2022/02/16 01:50:39;;;;;;;;;;;3.50;99.90;;;;;;5030065;28;19921;-88
2022/02/16 01:53:08;;;;;;;;;;;3.50;99.90;;;;;;5021342;28;19971;-87
2022/02/16 01:55:34;;;;;;;;;;;3.50;99.90;;;;;;5030515;28;19916;-88
2022/02/16 01:58:00;;;;;;;;;;;3.50;99.90;;;;;;5007702;28;19953;-86
2022/02/16 02:00:55;;;;;;;;;;;3.50;99.90;;;;;;5017792;28;19917;-88
2022/02/16 02:03:21;;;;;;;;;;;3.40;99.90;;;;;;4994382;28;19918;-86
2022/02/16 02:05:51;;;;;;;;;;;3.50;99.90;;;;;;5000089;28;19924;-87
2022/02/16 02:08:21;;;;;;;;;;;3.50;99.90;;;;;;5014113;28;19948;-86
2022/02/16 02:10:47;;;;;;;;;;;3.50;99.90;;;;;;5018308;28;19921;-86
2022/02/16 02:13:15;;;;;;;;;;;3.50;99.90;;;;;;5028493;28;19913;-87
2022/02/16 02:15:45;;;;;;;;;;;3.40;99.90;;;;;;5013085;28;20390;-87
2022/02/16 02:18:25;;;;;;;;;;;3.40;99.90;;;;;;5043807;28;19939;-87
2022/02/16 02:20:51;;;;;;;;;;;3.40;99.90;;;;;;5037147;23;20288;-82
2022/02/16 02:23:19;;;;;;;;;;;3.40;99.90;;;;;;5024548;28;19925;-81
2022/02/16 02:25:47;;;;;;;;;;;3.40;99.90;;;;;;5049311;28;19917;-81
2022/02/16 02:28:13;;;;;;;;;;;3.40;99.90;;;;;;5034563;28;19916;-82
2022/02/16 02:30:38;;;;;;;;;;;3.40;99.90;;;;;;5033163;28;19972;-81
2022/02/16 02:33:04;;;;;;;;;;;3.40;99.90;;;;;;5016167;28;19924;-81
2022/02/16 02:35:30;;;;;;;;;;;3.40;99.90;;;;;;5025751;23;19924;-87
2022/02/16 02:37:55;;;;;;;;;;;3.40;99.90;;;;;;5019454;28;19963;-87
2022/02/16 02:40:21;;;;;;;;;;;3.40;99.90;;;;;;5006054;28;19922;-87
2022/02/16 02:42:47;;;;;;;;;;;3.50;99.90;;;;;;4992085;28;20294;-87
2022/02/16 02:45:14;;;;;;;;;;;3.40;99.90;;;;;;4993942;28;19913;-89
2022/02/16 02:47:41;;;;;;;;;;;3.40;99.90;;;;;;4980085;28;19961;-87
2022/02/16 02:50:08;;;;;;;;;;;3.50;99.90;;;;;;5001898;28;19921;-87
2022/02/16 02:52:37;;;;;;;;;;;3.40;99.90;;;;;;4994977;28;19966;-87
2022/02/16 02:55:05;;;;;;;;;;;3.40;99.90;;;;;;4978855;28;19920;-87
2022/02/16 02:57:31;;;;;;;;;;;3.40;99.90;;;;;;4994417;28;19921;-87
2022/02/16 02:59:57;;;;;;;;;;;3.40;99.90;;;;;;5011113;28;19953;-88
2022/02/16 03:02:23;;;;;;;;;;;3.40;99.90;;;;;;5011075;28;19921;-87
2022/02/16 03:04:49;;;;;;;;;;;3.40;99.90;;;;;;4999329;28;20387;-87
2022/02/16 03:07:15;;;;;;;;;;;3.40;99.90;;;;;;4977855;28;20011;-87
2022/02/16 03:09:42;;;;;;;;;;;3.40;99.90;;;;;;4978321;28;19943;-87
2022/02/16 03:12:07;;;;;;;;;;;3.40;99.90;;;;;;4994725;28;20379;-87
2022/02/16 03:14:36;;;;;;;;;;;3.40;99.90;;;;;;4994707;28;19918;-87
2022/02/16 03:17:02;;;;;;;;;;;3.40;99.90;;;;;;4994385;28;19914;-88
2022/02/16 03:19:28;;;;;;;;;;;3.40;99.90;;;;;;5001760;28;19918;-89
2022/02/16 03:21:55;;;;;;;;;;;3.40;99.90;;;;;;4980567;28;19913;-88
2022/02/16 03:24:20;;;;;;;;;;;3.30;99.90;;;;;;4978337;28;19921;-89
2022/02/16 03:26:46;;;;;;;;;;;3.30;99.90;;;;;;4994120;28;19917;-86
2022/02/16 03:29:14;;;;;;;;;;;3.30;99.90;;;;;;4978107;28;19917;-85
2022/02/16 03:31:49;;;;;;;;;;;3.30;99.90;;;;;;5009642;28;19968;-88
2022/02/16 03:34:15;;;;;;;;;;;3.30;99.90;;;;;;5010951;28;19953;-88
2022/02/16 03:36:46;;;;;;;;;;;3.20;99.90;;;;;;4994519;28;19940;-87
2022/02/16 03:39:13;;;;;;;;;;;3.30;99.90;;;;;;4994638;28;20591;-86
2022/02/16 03:41:39;;;;;;;;;;;3.20;99.90;;;;;;4994054;28;19917;-87
2022/02/16 03:44:06;;;;;;;;;;;3.20;99.90;;;;;;4993389;28;19952;-87
2022/02/16 03:46:38;;;;;;;;;;;3.30;99.90;;;;;;4978843;28;19918;-87
2022/02/16 03:49:04;;;;;;;;;;;3.20;99.90;;;;;;4977949;28;20052;-86
2022/02/16 03:51:30;;;;;;;;;;;3.30;99.90;;;;;;4991426;28;19914;-86
2022/02/16 03:53:56;;;;;;;;;;;3.30;99.90;;;;;;4991337;28;19921;-87
2022/02/16 03:56:22;;;;;;;;;;;3.20;99.90;;;;;;4990615;28;20280;-87
2022/02/16 03:58:48;;;;;;;;;;;3.20;99.90;;;;;;4991075;28;19913;-86
2022/02/16 04:01:14;;;;;;;;;;;3.30;99.90;;;;;;4993648;28;19925;-87
2022/02/16 04:03:40;;;;;;;;;;;3.30;99.90;;;;;;4998087;28;19917;-87
2022/02/16 04:06:07;;;;;;;;;;;3.30;99.90;;;;;;4980986;28;19952;-87
2022/02/16 04:08:33;;;;;;;;;;;3.30;99.90;;;;;;4981609;28;19941;-86
2022/02/16 04:10:58;;;;;;;;;;;3.30;99.90;;;;;;4997535;28;20388;-86
2022/02/16 04:13:24;;;;;;;;;;;3.20;99.90;;;;;;4981880;28;20012;-87
2022/02/16 04:15:50;;;;;;;;;;;3.30;99.90;;;;;;4981480;28;19914;-86
2022/02/16 04:18:15;;;;;;;;;;;3.20;99.90;;;;;;4981782;28;19976;-87
2022/02/16 04:20:41;;;;;;;;;;;3.30;99.90;;;;;;4984785;28;20446;-86
2022/02/16 04:23:09;;;;;;;;;;;3.30;99.90;;;;;;4997511;28;19985;-87
2022/02/16 04:25:36;;;;;;;;;;;3.30;99.90;;;;;;4997309;28;19913;-87
2022/02/16 04:28:08;;;;;;;;;;;3.30;99.90;;;;;;4997276;28;19957;-86
2022/02/16 04:30:34;;;;;;;;;;;3.30;99.90;;;;;;4977931;28;19959;-87
2022/02/16 04:33:03;;;;;;;;;;;3.30;99.90;;;;;;4993689;28;19969;-88
2022/02/16 04:35:28;;;;;;;;;;;3.30;99.90;;;;;;4977795;28;19925;-87
2022/02/16 04:37:55;;;;;;;;;;;3.20;99.90;;;;;;4994184;28;20194;-87
2022/02/16 04:40:20;;;;;;;;;;;3.30;99.90;;;;;;4979199;28;19929;-87
2022/02/16 04:42:46;;;;;;;;;;;3.30;99.90;;;;;;4979841;28;19924;-87
2022/02/16 04:45:12;;;;;;;;;;;3.20;99.90;;;;;;4996845;28;20280;-88
2022/02/16 04:47:38;;;;;;;;;;;3.20;99.90;;;;;;4986092;28;19937;-88
2022/02/16 04:50:04;;;;;;;;;;;3.30;99.90;;;;;;5013547;28;19920;-87
2022/02/16 04:52:36;;;;;;;;;;;3.30;99.90;;;;;;4997137;28;19914;-87
2022/02/16 04:55:12;;;;;;;;;;;3.30;99.90;;;;;;4998109;28;19925;-87
2022/02/16 04:57:38;;;;;;;;;;;3.30;99.90;;;;;;4964834;28;19940;-88
2022/02/16 05:00:06;;;;;;;;;;;3.30;99.90;;;;;;4980310;28;20376;-88
2022/02/16 05:02:34;;;;;;;;;;;3.30;99.90;;;;;;4996779;28;19913;-88
2022/02/16 05:05:00;;;;;;;;;;;3.30;99.90;;;;;;4979940;28;19914;-88
2022/02/16 05:07:26;;;;;;;;;;;3.30;99.90;;;;;;4994987;28;19913;-88
2022/02/16 05:09:52;;;;;;;;;;;3.30;99.90;;;;;;4996974;28;19917;-88
2022/02/16 05:12:17;;;;;;;;;;;3.30;99.90;;;;;;4976973;28;20315;-87
2022/02/16 05:14:43;;;;;;;;;;;3.30;99.90;;;;;;5002948;28;19910;-87
2022/02/16 05:17:09;;;;;;;;;;;3.20;99.90;;;;;;4996470;28;19939;-88
2022/02/16 05:19:35;;;;;;;;;;;3.20;99.90;;;;;;4989736;28;20283;-87
2022/02/16 05:22:01;;;;;;;;;;;3.20;99.90;;;;;;4981416;28;19913;-87
2022/02/16 05:24:33;;;;;;;;;;;3.20;99.90;;;;;;4981212;28;19914;-87
2022/02/16 05:26:59;;;;;;;;;;;3.20;99.90;;;;;;4963443;28;19918;-88
2022/02/16 05:29:25;;;;;;;;;;;3.20;99.90;;;;;;4979477;28;20012;-86
2022/02/16 05:32:02;;;;;;;;;;;3.20;99.90;;;;;;4993060;28;19914;-87
2022/02/16 05:34:29;;;;;;;;;;;3.20;99.90;;;;;;4992789;28;20403;-87
2022/02/16 05:36:55;;;;;;;;;;;3.20;99.90;;;;;;4995800;28;19918;-89
2022/02/16 05:39:23;;;;;;;;;;;3.20;99.90;;;;;;4979936;28;20131;-87
2022/02/16 05:41:51;;;;;;;;;;;3.20;99.90;;;;;;4979605;28;20340;-87
2022/02/16 05:44:20;;;;;;;;;;;3.20;99.90;;;;;;4995602;28;19914;-87
2022/02/16 05:46:45;;;;;;;;;;;3.20;99.90;;;;;;4992971;28;20339;-86
2022/02/16 05:49:12;;;;;;;;;;;3.30;99.90;;;;;;4981580;28;20004;-87
2022/02/16 05:51:38;;;;;;;;;;;3.20;99.90;;;;;;5004854;28;19971;-87
2022/02/16 05:54:05;;;;;;;;;;;3.20;99.90;;;;;;4995003;28;19937;-87
2022/02/16 05:56:34;;;;;;;;;;;3.20;99.90;;;;;;4976038;28;19914;-87
2022/02/16 05:59:00;;;;;;;;;;;3.20;99.90;;;;;;4990150;28;19922;-86
2022/02/16 06:01:26;;;;;;;;;;;3.20;99.90;;;;;;4987852;28;20410;-86
2022/02/16 06:03:57;;;;;;;;;;;3.20;99.90;;;;;;4994230;28;19913;-87
2022/02/16 06:06:24;;;;;;;;;;;3.10;99.90;;;;;;4995442;28;19913;-87
2022/02/16 06:08:53;;;;;;;;;;;3.20;99.90;;;;;;4982571;28;19979;-87
2022/02/16 06:11:18;;;;;;;;;;;3.10;99.90;;;;;;4979055;28;20375;-87
2022/02/16 06:13:48;;;;;;;;;;;3.20;99.90;;;;;;4980961;28;20064;-87
2022/02/16 06:16:15;;;;;;;;;;;3.10;99.90;;;;;;4988767;28;20501;-87
2022/02/16 06:18:41;;;;;;;;;;;3.20;99.90;;;;;;4981387;28;20004;-87
2022/02/16 06:21:08;;;;;;;;;;;3.10;99.90;;;;;;5015444;28;20283;-88
2022/02/16 06:23:35;;;;;;;;;;;3.20;99.90;;;;;;4994718;28;19914;-87
2022/02/16 06:26:00;;;;;;;;;;;3.10;99.90;;;;;;4995038;28;19971;-88
2022/02/16 06:28:26;;;;;;;;;;;3.20;99.90;;;;;;4986105;28;19936;-87
2022/02/16 06:30:52;;;;;;;;;;;3.20;99.90;;;;;;5008803;28;20391;-87
2022/02/16 06:33:18;;;;;;;;;;;3.20;99.90;;;;;;4979259;28;19914;-87
2022/02/16 06:35:45;;;;;;;;;;;3.20;99.90;;;;;;4978910;28;19920;-87
2022/02/16 06:38:11;;;;;;;;;;;3.20;99.90;;;;;;5011252;28;19996;-86
2022/02/16 06:40:37;;;;;;;;;;;3.20;99.90;;;;;;5010924;28;19972;-86
2022/02/16 06:43:06;;;;;;;;;;;3.20;99.90;;;;;;4982451;28;19918;-86
2022/02/16 06:45:32;;;;;;;;;;;3.20;99.90;;;;;;4986439;28;19968;-86
2022/02/16 06:47:59;;;;;;;;;;;3.20;99.90;;;;;;4980302;28;19925;-87
2022/02/16 06:50:25;;;;;;;;;;;3.30;99.90;;;;;;4984514;28;20323;-88
2022/02/16 06:53:09;;;;;;;;;;;3.20;99.90;;;;;;4981259;28;20252;-87
2022/02/16 06:55:36;;;;;;;;;;;3.30;99.90;;;;;;5000922;28;20268;-87
2022/02/16 06:58:01;;;;;;;;;;;3.30;99.90;;;;;;4994650;28;19925;-88
2022/02/16 07:00:29;;;;;;;;;;;3.30;99.90;;;;;;4978664;28;19921;-85
2022/02/16 07:02:55;;;;;;;;;;;3.30;99.90;;;;;;5004081;28;19953;-87
2022/02/16 07:05:28;;;;;;;;;;;3.30;99.90;;;;;;4977949;28;19937;-87
2022/02/16 07:07:54;;;;;;;;;;;3.30;99.90;;;;;;4965399;28;20260;-87
2022/02/16 07:10:20;;;;;;;;;;;3.30;99.90;;;;;;4980279;28;19921;-86
2022/02/16 07:12:46;;;;;;;;;;;3.30;99.90;;;;;;4978514;28;20443;-86
2022/02/16 07:15:12;;;;;;;;;;;3.40;99.90;;;;;;4994684;28;19957;-85
2022/02/16 07:17:40;;;;;;;;;;;3.40;99.90;;;;;;4993282;28;19924;-87
2022/02/16 07:20:08;;;;;;;;;;;3.40;99.90;;;;;;4994146;28;19940;-86
2022/02/16 07:22:37;;;;;;;;;;;3.50;99.90;;;;;;4974464;28;19913;-86
2022/02/16 07:25:03;;;;;;;;;;;3.50;99.90;;;;;;4991199;28;19914;-86
2022/02/16 07:27:29;;;;;;;;;;;3.50;99.90;;;;;;4977450;28;19987;-87
2022/02/16 07:29:55;;;;;;;;;;;3.50;99.90;;;;;;5000881;28;19917;-85
2022/02/16 07:32:21;;;;;;;;;;;3.60;99.90;;;;;;4979944;28;19921;-86
2022/02/16 07:34:47;;;;;;;;;;;3.60;99.90;;;;;;4997633;28;19922;-85
2022/02/16 07:37:13;;;;;;;;;;;3.60;99.90;;;;;;4985136;28;19970;-88
2022/02/16 07:39:39;;;;;;;;;;;3.60;99.90;;;;;;4989531;28;19917;-86
2022/02/16 07:42:05;;;;;;;;;;;3.60;99.90;;;;;;4982229;28;19948;-85
2022/02/16 07:44:54;;;;;;;;;;;3.60;99.90;;;;;;4997913;28;19914;-87
2022/02/16 07:47:23;;;;;;;;;;;3.60;99.90;;;;;;4982216;28;20063;-88
2022/02/16 07:49:51;;;;;;;;;;;3.70;99.90;;;;;;4997589;28;19917;-87
2022/02/16 07:52:23;;;;;;;;;;;3.70;99.90;;;;;;4999439;28;19914;-85
2022/02/16 07:55:00;;;;;;;;;;;3.70;99.90;;;;;;4986312;28;19914;-86
2022/02/16 07:57:35;;;;;;;;;;;3.80;99.90;;;;;;4986496;28;20007;-87
2022/02/16 08:00:01;;;;;;;;;;;3.80;99.90;;;;;;4988223;28;19990;-85
2022/02/16 08:02:29;;;;;;;;;;;3.80;99.90;;;;;;4979088;28;20005;-86
2022/02/16 08:04:55;;;;;;;;;;;3.80;99.90;;;;;;4990315;28;19921;-86
2022/02/16 08:07:21;;;;;;;;;;;3.80;99.90;;;;;;4981299;28;19917;-86
2022/02/16 08:09:48;;;;;;;;;;;3.90;99.90;;;;;;4997358;28;19920;-86
2022/02/16 08:12:14;;;;;;;;;;;3.90;99.90;;;;;;4994794;28;20618;-87
2022/02/16 08:14:40;;;;;;;;;;;3.90;99.90;;;;;;5001189;28;19921;-87
2022/02/16 08:17:07;;;;;;;;;;;3.90;99.90;;;;;;4998067;28;19919;-88
2022/02/16 08:19:34;;;;;;;;;;;3.90;99.90;;;;;;4994624;28;19929;-85
2022/02/16 08:22:00;;;;;;;;;;;4.00;99.90;;;;;;4979606;28;19913;-84
2022/02/16 08:24:27;;;;;;;;;;;4.00;99.90;;;;;;5012099;28;19913;-86
2022/02/16 08:26:59;;;;;;;;;;;4.00;99.90;;;;;;4997779;28;19941;-85
2022/02/16 08:29:25;;;;;;;;;;;4.00;99.90;;;;;;4978226;28;19941;-84
2022/02/16 08:31:52;;;;;;;;;;;4.00;99.90;;;;;;4987012;28;20381;-85
2022/02/16 08:34:40;;;;;;;;;;;4.10;99.90;;;;;;5006366;28;19913;-84
2022/02/16 08:37:09;;;;;;;;;;;4.20;99.90;;;;;;4996990;28;20002;-85
2022/02/16 08:39:35;;;;;;;;;;;4.20;99.90;;;;;;4980028;28;20439;-85
2022/02/16 08:42:01;;;;;;;;;;;4.20;99.90;;;;;;4976691;28;19969;-85
2022/02/16 08:44:26;;;;;;;;;;;4.30;99.90;;;;;;4979422;28;19964;-83
2022/02/16 08:46:52;;;;;;;;;;;4.30;99.90;;;;;;4978707;28;19968;-84
2022/02/16 08:49:18;;;;;;;;;;;4.40;99.90;;;;;;4974967;28;19921;-86
2022/02/16 08:51:44;;;;;;;;;;;4.40;99.90;;;;;;4992513;28;19921;-88
2022/02/16 08:54:09;;;;;;;;;;;4.50;99.90;;;;;;4977497;28;20280;-87
2022/02/16 08:56:35;;;;;;;;;;;4.60;99.90;;;;;;4974907;28;19975;-86
2022/02/16 08:59:02;;;;;;;;;;;4.60;99.90;;;;;;4985840;28;20041;-86
2022/02/16 09:01:31;;;;;;;;;;;4.70;99.90;;;;;;4973700;28;19922;-86
2022/02/16 09:03:57;;;;;;;;;;;4.70;99.90;;;;;;4991969;28;20430;-87
2022/02/16 09:06:24;;;;;;;;;;;4.80;99.90;;;;;;4992488;28;19913;-85
2022/02/16 09:08:49;;;;;;;;;;;4.90;99.90;;;;;;4991384;28;19914;-84
2022/02/16 09:11:15;;;;;;;;;;;4.90;99.90;;;;;;4993263;28;19975;-85
2022/02/16 09:13:41;;;;;;;;;;;4.90;99.90;;;;;;4991394;28;19922;-84
2022/02/16 09:16:07;;;;;;;;;;;5.00;99.90;;;;;;4959364;28;20331;-84
2022/02/16 09:18:32;;;;;;;;;;;5.00;99.90;;;;;;4972745;28;19918;-85
2022/02/16 09:21:00;;;;;;;;;;;5.00;99.90;;;;;;4977786;28;19928;-85
2022/02/16 09:23:25;;;;;;;;;;;5.10;99.90;;;;;;4990113;28;19914;-85
2022/02/16 09:25:51;;;;;;;;;;;5.20;99.90;;;;;;4989869;28;19952;-85
2022/02/16 09:28:18;;;;;;;;;;;5.20;99.90;;;;;;5000069;28;19932;-84
2022/02/16 09:30:43;;;;;;;;;;;5.30;99.90;;;;;;4971548;28;19914;-85
2022/02/16 09:33:09;;;;;;;;;;;5.30;99.90;;;;;;4976400;28;20579;-85
2022/02/16 09:35:35;;;;;;;;;;;5.30;99.90;;;;;;4994844;28;19993;-86
2022/02/16 09:38:00;;;;;;;;;;;5.30;99.90;;;;;;4973986;28;19918;-85
2022/02/16 09:40:28;;;;;;;;;;;5.40;99.90;;;;;;4975303;28;20029;-86
2022/02/16 09:42:55;;;;;;;;;;;5.40;99.90;;;;;;4991237;28;19943;-85
2022/02/16 09:45:21;;;;;;;;;;;5.50;99.90;;;;;;4991647;28;20380;-87
2022/02/16 09:47:47;;;;;;;;;;;5.50;99.90;;;;;;4992489;28;19917;-87
2022/02/16 09:50:14;;;;;;;;;;;5.50;99.90;;;;;;4976320;28;19920;-85
2022/02/16 09:52:40;;;;;;;;;;;5.60;99.90;;;;;;4972351;28;19918;-86
2022/02/16 09:55:07;;;;;;;;;;;5.70;99.90;;;;;;4973401;28;19913;-86
2022/02/16 09:57:33;;;;;;;;;;;5.80;99.90;;;;;;4992066;28;19914;-85
2022/02/16 09:59:59;;;;;;;;;;;5.80;99.90;;;;;;5009978;28;19929;-88
2022/02/16 10:02:33;;;;;;;;;;;5.80;99.90;;;;;;4977532;28;19924;-86
2022/02/16 10:04:59;;;;;;;;;;;5.90;99.90;;;;;;4992439;28;20013;-86
2022/02/16 10:07:26;;;;;;;;;;;6.00;99.90;;;;;;4991350;28;19925;-86
2022/02/16 10:09:52;;;;;;;;;;;6.00;99.90;;;;;;4975362;28;20341;-86
2022/02/16 10:12:18;;;;;;;;;;;6.10;99.90;;;;;;4988977;28;20328;-86
2022/02/16 10:14:44;;;;;;;;;;;6.10;99.90;;;;;;5005108;28;19960;-85
2022/02/16 10:17:19;;;;;;;;;;;6.20;99.90;;;;;;4991521;28;20479;-88
2022/02/16 10:19:48;;;;;;;;;;;6.30;99.90;;;;;;4992335;28;19978;-86
2022/02/16 10:22:14;;;;;;;;;;;6.30;99.90;;;;;;4978053;28;19909;-88
2022/02/16 10:24:39;;;;;;;;;;;6.40;99.90;;;;;;4973508;28;19925;-87
2022/02/16 10:27:05;;;;;;;;;;;6.40;99.90;;;;;;4986697;28;19914;-88
2022/02/16 10:29:56;;;;;;;;;;;6.40;99.90;;;;;;4984396;28;20620;-88
2022/02/16 10:32:32;;;;;;;;;;;6.30;99.90;;;;;;4996566;28;19917;-88
2022/02/16 10:34:58;;;;;;;;;;;6.30;99.90;;;;;;4995606;28;19914;-86
2022/02/16 10:37:30;;;;;;;;;;;6.40;99.90;;;;;;4990241;28;19925;-86
2022/02/16 10:40:25;;;;;;;;;;;6.40;99.90;;;;;;4995641;28;20413;-87
2022/02/16 10:42:55;;;;;;;;;;;6.40;99.90;;;;;;4973959;28;19921;-86
2022/02/16 10:45:21;;;;;;;;;;;6.50;99.90;;;;;;5010425;28;19914;-85
2022/02/16 10:47:51;;;;;;;;;;;6.50;99.90;;;;;;4988982;28;20612;-86
2022/02/16 10:50:17;;;;;;;;;;;6.50;99.90;;;;;;4962498;28;19923;-86
2022/02/16 10:52:56;;;;;;;;;;;6.40;99.90;;;;;;4973436;28;20016;-87
2022/02/16 10:55:34;;;;;;;;;;;6.30;99.90;;;;;;4999370;28;20300;-85
2022/02/16 10:58:02;;;;;;;;;;;6.30;99.90;;;;;;4990995;28;19913;-86
2022/02/16 11:00:30;;;;;;;;;;;6.20;99.90;;;;;;5008221;28;19967;-85
2022/02/16 11:02:55;;;;;;;;;;;6.10;99.90;;;;;;4962951;28;19918;-85
2022/02/16 11:05:21;;;;;;;;;;;6.00;99.90;;;;;;4993785;28;20529;-84
2022/02/16 11:07:47;;;;;;;;;;;6.00;99.90;;;;;;4978916;28;20012;-84
2022/02/16 11:10:13;;;;;;;;;;;5.90;99.90;;;;;;4996757;28;19913;-83
2022/02/16 11:12:38;;;;;;;;;;;5.90;99.90;;;;;;5004117;28;20012;-84
2022/02/16 11:15:04;;;;;;;;;;;5.80;99.90;;;;;;4997851;28;19920;-85
2022/02/16 11:17:30;;;;;;;;;;;5.80;99.90;;;;;;5000288;28;19922;-86
2022/02/16 11:20:14;;;;;;;;;;;5.90;99.90;;;;;;4983839;28;19980;-86
2022/02/16 11:22:51;;;;;;;;;;;5.90;99.90;;;;;;4977763;28;20387;-83
2022/02/16 11:25:32;;;;;;;;;;;6.00;99.90;;;;;;4957289;28;20457;-85
2022/02/16 11:27:59;;;;;;;;;;;6.00;99.90;;;;;;4981598;28;19914;-85
2022/02/16 11:30:33;;;;;;;;;;;6.10;99.90;;;;;;4998225;28;20407;-84
2022/02/16 11:33:10;;;;;;;;;;;6.20;99.90;;;;;;4996125;28;19913;-85
2022/02/16 11:35:50;;;;;;;;;;;6.20;99.90;;;;;;4990092;28;19917;-85
2022/02/16 11:38:20;;;;;;;;;;;6.30;99.90;;;;;;5010874;28;19971;-85
2022/02/16 11:40:48;;;;;;;;;;;6.30;99.90;;;;;;4960997;28;19921;-86
2022/02/16 11:43:14;;;;;;;;;;;6.40;99.90;;;;;;4974632;28;19960;-86
2022/02/16 11:45:48;;;;;;;;;;;6.30;99.90;;;;;;4999979;28;19937;-86
2022/02/16 11:48:32;;;;;;;;;;;6.40;99.90;;;;;;5009246;28;19921;-86
2022/02/16 11:50:58;;;;;;;;;;;6.40;99.90;;;;;;4994581;28;19913;-84
2022/02/16 11:53:27;;;;;;;;;;;6.40;99.90;;;;;;4992666;28;19924;-88
2022/02/16 11:55:55;;;;;;;;;;;6.40;99.90;;;;;;4977040;28;20275;-86
2022/02/16 11:58:22;;;;;;;;;;;6.40;99.90;;;;;;4993828;28;20335;-86
2022/02/16 12:00:58;;;;;;;;;;;6.50;99.90;;;;;;4989600;28;19926;-88
2022/02/16 12:03:28;;;;;;;;;;;6.50;99.90;;;;;;4995525;28;19928;-88
2022/02/16 12:06:00;;;;;;;;;;;6.50;99.90;;;;;;4982715;28;20008;-89
2022/02/16 12:08:40;;;;;;;;;;;6.60;99.90;;;;;;4997137;28;19952;-85
2022/02/16 12:11:15;;;;;;;;;;;6.60;99.90;;;;;;4992777;28;20008;-84
2022/02/16 12:13:43;;;;;;;;;;;6.70;99.90;;;;;;5009638;28;19918;-84
2022/02/16 12:16:11;;;;;;;;;;;6.80;99.90;;;;;;4993558;28;19921;-85
2022/02/16 12:18:52;;;;;;;;;;;7.00;99.90;;;;;;5106522;27;19926;-80
2022/02/16 12:21:40;;;;;;;;;;;7.00;99.90;;;;;;5121894;28;19995;-80
2022/02/16 12:24:08;;;;;;;;;;;7.00;99.90;;;;;;5088564;28;19922;-80
2022/02/16 12:26:35;;;;;;;;;;;7.20;99.90;;;;;;5096941;28;19920;-80
2022/02/16 12:29:02;;;;;;;;;;;7.20;99.90;;;;;;5062603;28;20267;-80
2022/02/16 12:31:30;;;;;;;;;;;7.10;99.90;;;;;;5083691;28;19924;-79
2022/02/16 12:33:57;;;;;;;;;;;7.10;99.90;;;;;;5061605;28;20285;-79
2022/02/16 12:36:23;;;;;;;;;;;7.10;99.90;;;;;;5084622;28;19916;-80
2022/02/16 12:38:49;;;;;;;;;;;7.00;99.90;;;;;;5064605;28;20339;-80
2022/02/16 12:41:19;;;;;;;;;;;7.00;99.90;;;;;;5092652;28;20376;-82
2022/02/16 12:43:49;;;;;;;;;;;6.90;99.90;;;;;;5086112;28;19916;-80
2022/02/16 12:46:15;;;;;;;;;;;6.90;99.90;;;;;;5086878;28;20000;-81
2022/02/16 12:48:47;;;;;;;;;;;6.90;99.90;;;;;;5083927;28;20023;-82
2022/02/16 12:51:19;;;;;;;;;;;6.90;99.90;;;;;;5082777;28;19916;-80
2022/02/16 12:53:44;;;;;;;;;;;6.90;99.90;;;;;;5082301;28;20545;-81
2022/02/16 12:56:11;;;;;;;;;;;6.90;99.90;;;;;;5065052;28;19994;-81
2022/02/16 12:58:39;;;;;;;;;;;6.90;99.90;;;;;;5063473;28;19962;-81
2022/02/16 13:01:05;;;;;;;;;;;6.90;99.90;;;;;;5103949;28;19919;-81
2022/02/16 13:03:33;;;;;;;;;;;6.80;99.90;;;;;;5079678;28;20390;-82
2022/02/16 13:05:59;;;;;;;;;;;6.80;99.90;;;;;;5067347;28;20087;-81
2022/02/16 13:08:26;;;;;;;;;;;6.80;99.90;;;;;;5066243;28;20014;-83
2022/02/16 13:10:52;;;;;;;;;;;6.80;99.90;;;;;;5084139;28;19912;-82
2022/02/16 13:13:20;;;;;;;;;;;6.80;99.90;;;;;;5066981;28;19913;-82
2022/02/16 13:15:47;;;;;;;;;;;6.80;99.90;;;;;;5083422;28;19912;-79
2022/02/16 13:18:14;;;;;;;;;;;6.80;99.90;;;;;;5072467;28;20022;-80
2022/02/16 13:20:42;;;;;;;;;;;6.70;99.90;;;;;;5103734;28;19959;-81
2022/02/16 13:23:20;;;;;;;;;;;6.70;99.90;;;;;;5084365;28;19920;-80
2022/02/16 13:25:50;;;;;;;;;;;6.70;99.90;;;;;;5100298;28;19912;-80
2022/02/16 13:28:24;;;;;;;;;;;6.70;99.90;;;;;;5090904;28;19955;-82
2022/02/16 13:30:52;;;;;;;;;;;6.70;99.90;;;;;;5072581;28;19912;-82
2022/02/16 13:33:30;;;;;;;;;;;6.70;99.90;;;;;;5069264;28;20414;-81
2022/02/16 13:35:57;;;;;;;;;;;6.60;99.90;;;;;;5069577;28;19973;-82
2022/02/16 13:38:22;;;;;;;;;;;6.60;99.90;;;;;;5069593;28;19928;-80
2022/02/16 13:40:50;;;;;;;;;;;6.60;99.90;;;;;;5083851;28;19913;-81
2022/02/16 13:43:16;;;;;;;;;;;6.60;99.90;;;;;;5067479;28;19920;-81
2022/02/16 13:45:42;;;;;;;;;;;6.60;99.90;;;;;;5035763;28;19917;-82
2022/02/16 13:48:08;;;;;;;;;;;6.60;99.90;;;;;;5053234;28;20325;-82
2022/02/16 13:50:41;;;;;;;;;;;6.60;99.90;;;;;;5069065;28;19916;-82
2022/02/16 13:53:07;;;;;;;;;;;6.60;99.90;;;;;;5067322;28;20008;-81
2022/02/16 13:55:43;;;;;;;;;;;6.70;99.90;;;;;;5049402;28;19913;-80
2022/02/16 13:58:10;;;;;;;;;;;6.60;99.90;;;;;;5070796;28;19966;-80
2022/02/16 14:00:36;;;;;;;;;;;6.70;99.90;;;;;;5068860;28;19920;-80
2022/02/16 14:03:13;;;;;;;;;;;6.70;99.90;;;;;;5060426;28;20320;-80
2022/02/16 14:05:39;;;;;;;;;;;6.70;99.90;;;;;;5050460;28;20287;-80
2022/02/16 14:08:05;;;;;;;;;;;6.80;99.90;;;;;;5068828;28;19973;-80
2022/02/16 14:10:35;;;;;;;;;;;6.70;99.90;;;;;;5045134;28;19959;-80
2022/02/16 14:13:01;;;;;;;;;;;6.70;99.90;;;;;;5066447;28;19912;-81
2022/02/16 14:15:27;;;;;;;;;;;6.70;99.90;;;;;;5053981;28;19961;-80
2022/02/16 14:17:53;;;;;;;;;;;6.70;99.90;;;;;;5049239;28;19929;-80
2022/02/16 14:20:19;;;;;;;;;;;6.70;99.90;;;;;;5054189;28;19920;-81
2022/02/16 14:22:45;;;;;;;;;;;6.80;99.90;;;;;;5026448;28;19917;-81
2022/02/16 14:25:10;;;;;;;;;;;6.80;99.90;;;;;;5063153;28;19912;-80
2022/02/16 14:27:36;;;;;;;;;;;6.80;99.90;;;;;;5070799;28;20080;-80
2022/02/16 14:30:02;;;;;;;;;;;6.80;99.90;;;;;;5050887;28;19912;-80
2022/02/16 14:32:28;;;;;;;;;;;6.80;99.90;;;;;;5070257;28;19919;-80
2022/02/16 14:34:59;;;;;;;;;;;6.90;99.90;;;;;;5066250;28;19912;-80